sensor_id;sensor_type;location;lat;lon;timestamp;temperature;humidity
29777;DHT22;16677;52.224;7.484;2023-04-24T00:01:08;10.50;1.00
29777;DHT22;16677;52.224;7.484;2023-04-24T00:03:37;10.50;99.90
29777;DHT22;16677;52.224;7.484;2023-04-24T00:06:05;10.50;1.00
29777;DHT22;16677;52.224;7.484;2023-04-24T00:08:35;10.50;1.00
29777;DHT22;16677;52.224;7.484;2023-04-24T00:11:02;10.40;1.00
29777;DHT22;16677;52.224;7.484;2023-04-24T00:13:29;10.50;1.00
29777;DHT22;16677;52.224;7.484;2023-04-24T00:15:56;10.50;1.00
29777;DHT22;16677;52.224;7.484;2023-04-24T00:18:23;10.60;99.90
29777;DHT22;16677;52.224;7.484;2023-04-24T00:20:50;10.60;1.00
29777;DHT22;16677;52.224;7.484;2023-04-24T00:23:17;10.60;1.00
29777;DHT22;16677;52.224;7.484;2023-04-24T00:25:44;10.60;99.90
29777;DHT22;16677;52.224;7.484;2023-04-24T00:28:11;10.60;1.00
29777;DHT22;16677;52.224;7.484;2023-04-24T00:30:38;10.60;1.00
29777;DHT22;16677;52.224;7.484;2023-04-24T00:33:05;10.60;1.00
29777;DHT22;16677;52.224;7.484;2023-04-24T00:35:32;10.60;99.90
29777;DHT22;16677;52.224;7.484;2023-04-24T00:37:59;10.60;47.30
29777;DHT22;16677;52.224;7.484;2023-04-24T00:40:26;10.50;99.90
29777;DHT22;16677;52.224;7.484;2023-04-24T00:42:53;10.40;1.00
29777;DHT22;16677;52.224;7.484;2023-04-24T00:45:20;10.30;1.00
29777;DHT22;16677;52.224;7.484;2023-04-24T00:47:48;10.30;1.00
29777;DHT22;16677;52.224;7.484;2023-04-24T00:50:15;10.20;31.30
29777;DHT22;16677;52.224;7.484;2023-04-24T00:52:42;10.10;99.90
29777;DHT22;16677;52.224;7.484;2023-04-24T00:55:09;10.20;99.90
29777;DHT22;16677;52.224;7.484;2023-04-24T00:57:36;10.10;99.90
29777;DHT22;16677;52.224;7.484;2023-04-24T01:00:05;10.10;99.90
29777;DHT22;16677;52.224;7.484;2023-04-24T01:02:39;10.10;99.90
29777;DHT22;16677;52.224;7.484;2023-04-24T01:05:11;10.10;99.90
29777;DHT22;16677;52.224;7.484;2023-04-24T01:07:40;10.00;99.90
29777;DHT22;16677;52.224;7.484;2023-04-24T01:10:11;10.10;99.90
29777;DHT22;16677;52.224;7.484;2023-04-24T01:12:38;10.10;99.90
29777;DHT22;16677;52.224;7.484;2023-04-24T01:15:05;10.20;99.90
29777;DHT22;16677;52.224;7.484;2023-04-24T01:17:33;10.10;99.90
29777;DHT22;16677;52.224;7.484;2023-04-24T01:20:00;10.00;99.90
29777;DHT22;16677;52.224;7.484;2023-04-24T01:22:27;10.10;99.90
29777;DHT22;16677;52.224;7.484;2023-04-24T01:24:54;10.00;99.90
29777;DHT22;16677;52.224;7.484;2023-04-24T01:27:21;9.90;99.90
29777;DHT22;16677;52.224;7.484;2023-04-24T01:29:48;10.00;99.90
29777;DHT22;16677;52.224;7.484;2023-04-24T01:32:17;10.00;99.90
29777;DHT22;16677;52.224;7.484;2023-04-24T01:34:45;10.00;99.90
29777;DHT22;16677;52.224;7.484;2023-04-24T01:37:13;10.00;99.90
29777;DHT22;16677;52.224;7.484;2023-04-24T01:39:39;10.10;99.90
29777;DHT22;16677;52.224;7.484;2023-04-24T01:42:07;10.00;99.90
29777;DHT22;16677;52.224;7.484;2023-04-24T01:44:34;10.10;99.90
29777;DHT22;16677;52.224;7.484;2023-04-24T01:47:01;10.00;99.90
29777;DHT22;16677;52.224;7.484;2023-04-24T01:49:28;10.00;99.90
29777;DHT22;16677;52.224;7.484;2023-04-24T01:51:55;10.00;99.90
29777;DHT22;16677;52.224;7.484;2023-04-24T01:54:22;10.00;99.90
29777;DHT22;16677;52.224;7.484;2023-04-24T01:56:49;10.00;99.90
29777;DHT22;16677;52.224;7.484;2023-04-24T01:59:16;10.10;99.90
29777;DHT22;16677;52.224;7.484;2023-04-24T02:01:44;10.00;99.90
29777;DHT22;16677;52.224;7.484;2023-04-24T02:04:11;10.00;99.90
29777;DHT22;16677;52.224;7.484;2023-04-24T02:06:38;10.00;99.90
29777;DHT22;16677;52.224;7.484;2023-04-24T02:09:05;10.00;99.90
29777;DHT22;16677;52.224;7.484;2023-04-24T02:11:33;10.00;99.90
29777;DHT22;16677;52.224;7.484;2023-04-24T02:14:00;10.00;99.90
29777;DHT22;16677;52.224;7.484;2023-04-24T02:16:28;10.00;99.90
29777;DHT22;16677;52.224;7.484;2023-04-24T02:18:59;10.00;99.90
29777;DHT22;16677;52.224;7.484;2023-04-24T02:21:26;10.00;99.90
29777;DHT22;16677;52.224;7.484;2023-04-24T02:23:54;10.00;99.90
29777;DHT22;16677;52.224;7.484;2023-04-24T02:26:20;10.10;99.90
29777;DHT22;16677;52.224;7.484;2023-04-24T02:28:48;10.10;99.90
29777;DHT22;16677;52.224;7.484;2023-04-24T02:31:15;10.10;99.90
29777;DHT22;16677;52.224;7.484;2023-04-24T02:33:41;10.10;99.90
29777;DHT22;16677;52.224;7.484;2023-04-24T02:36:08;10.00;99.90
29777;DHT22;16677;52.224;7.484;2023-04-24T02:38:35;10.10;99.90
29777;DHT22;16677;52.224;7.484;2023-04-24T02:41:02;10.10;66.50
29777;DHT22;16677;52.224;7.484;2023-04-24T02:43:32;10.20;61.00
29777;DHT22;16677;52.224;7.484;2023-04-24T02:46:00;10.10;1.00
29777;DHT22;16677;52.224;7.484;2023-04-24T02:48:27;10.10;1.00
29777;DHT22;16677;52.224;7.484;2023-04-24T02:50:54;10.20;1.00
29777;DHT22;16677;52.224;7.484;2023-04-24T02:53:21;10.20;1.00
29777;DHT22;16677;52.224;7.484;2023-04-24T02:55:49;10.20;1.00
29777;DHT22;16677;52.224;7.484;2023-04-24T02:58:16;10.20;1.00
29777;DHT22;16677;52.224;7.484;2023-04-24T03:00:43;10.20;1.00
29777;DHT22;16677;52.224;7.484;2023-04-24T03:03:11;10.20;1.00
29777;DHT22;16677;52.224;7.484;2023-04-24T03:05:38;10.20;1.00
29777;DHT22;16677;52.224;7.484;2023-04-24T03:08:05;10.20;1.00
29777;DHT22;16677;52.224;7.484;2023-04-24T03:10:32;10.20;1.00
29777;DHT22;16677;52.224;7.484;2023-04-24T03:12:59;10.10;1.00
29777;DHT22;16677;52.224;7.484;2023-04-24T03:15:26;10.10;1.00
29777;DHT22;16677;52.224;7.484;2023-04-24T03:17:53;10.10;1.00
29777;DHT22;16677;52.224;7.484;2023-04-24T03:20:22;10.10;1.00
29777;DHT22;16677;52.224;7.484;2023-04-24T03:22:49;10.10;1.00
29777;DHT22;16677;52.224;7.484;2023-04-24T03:25:16;10.10;1.00
29777;DHT22;16677;52.224;7.484;2023-04-24T03:27:43;10.10;1.00
29777;DHT22;16677;52.224;7.484;2023-04-24T03:30:10;10.00;1.00
29777;DHT22;16677;52.224;7.484;2023-04-24T03:32:37;10.00;1.00
29777;DHT22;16677;52.224;7.484;2023-04-24T03:35:06;10.00;1.00
29777;DHT22;16677;52.224;7.484;2023-04-24T03:37:35;10.00;1.00
29777;DHT22;16677;52.224;7.484;2023-04-24T03:40:02;10.00;1.00
29777;DHT22;16677;52.224;7.484;2023-04-24T03:42:29;9.90;1.00
29777;DHT22;16677;52.224;7.484;2023-04-24T03:44:56;10.00;1.00
29777;DHT22;16677;52.224;7.484;2023-04-24T03:47:23;9.90;1.00
29777;DHT22;16677;52.224;7.484;2023-04-24T03:49:50;9.90;1.00
29777;DHT22;16677;52.224;7.484;2023-04-24T03:52:17;9.90;1.00
29777;DHT22;16677;52.224;7.484;2023-04-24T03:54:44;9.80;1.00
29777;DHT22;16677;52.224;7.484;2023-04-24T03:57:11;9.80;1.00
29777;DHT22;16677;52.224;7.484;2023-04-24T03:59:38;9.80;1.00
29777;DHT22;16677;52.224;7.484;2023-04-24T04:02:05;9.90;1.00
29777;DHT22;16677;52.224;7.484;2023-04-24T04:04:32;9.90;1.00
29777;DHT22;16677;52.224;7.484;2023-04-24T04:06:59;9.80;1.00
29777;DHT22;16677;52.224;7.484;2023-04-24T04:09:27;9.80;1.00
29777;DHT22;16677;52.224;7.484;2023-04-24T04:11:55;9.80;1.00
29777;DHT22;16677;52.224;7.484;2023-04-24T04:14:22;9.70;1.00
29777;DHT22;16677;52.224;7.484;2023-04-24T04:16:49;9.70;1.00
29777;DHT22;16677;52.224;7.484;2023-04-24T04:19:20;9.70;1.00
29777;DHT22;16677;52.224;7.484;2023-04-24T04:21:47;9.70;1.00
29777;DHT22;16677;52.224;7.484;2023-04-24T04:24:19;9.60;1.00
29777;DHT22;16677;52.224;7.484;2023-04-24T04:26:47;9.70;1.00
29777;DHT22;16677;52.224;7.484;2023-04-24T04:29:14;9.70;1.00
29777;DHT22;16677;52.224;7.484;2023-04-24T04:31:44;9.70;1.00
29777;DHT22;16677;52.224;7.484;2023-04-24T04:34:11;9.70;1.00
29777;DHT22;16677;52.224;7.484;2023-04-24T04:36:39;9.70;1.00
29777;DHT22;16677;52.224;7.484;2023-04-24T04:39:07;9.70;1.00
29777;DHT22;16677;52.224;7.484;2023-04-24T04:41:34;9.70;1.00
29777;DHT22;16677;52.224;7.484;2023-04-24T04:44:01;9.80;1.00
29777;DHT22;16677;52.224;7.484;2023-04-24T04:46:31;9.80;1.00
29777;DHT22;16677;52.224;7.484;2023-04-24T04:49:01;9.80;1.00
29777;DHT22;16677;52.224;7.484;2023-04-24T04:51:28;9.80;1.00
29777;DHT22;16677;52.224;7.484;2023-04-24T04:53:55;9.80;1.00
29777;DHT22;16677;52.224;7.484;2023-04-24T04:56:22;9.80;1.00
29777;DHT22;16677;52.224;7.484;2023-04-24T04:58:49;9.90;1.00
29777;DHT22;16677;52.224;7.484;2023-04-24T05:01:16;9.80;1.00
29777;DHT22;16677;52.224;7.484;2023-04-24T05:03:44;9.80;1.00
29777;DHT22;16677;52.224;7.484;2023-04-24T05:06:11;10.10;1.00
29777;DHT22;16677;52.224;7.484;2023-04-24T05:08:38;9.90;1.00
29777;DHT22;16677;52.224;7.484;2023-04-24T05:11:05;9.90;1.00
29777;DHT22;16677;52.224;7.484;2023-04-24T05:13:32;9.90;1.00
29777;DHT22;16677;52.224;7.484;2023-04-24T05:16:06;9.90;1.00
29777;DHT22;16677;52.224;7.484;2023-04-24T05:18:33;10.00;1.00
29777;DHT22;16677;52.224;7.484;2023-04-24T05:21:00;10.10;99.90
29777;DHT22;16677;52.224;7.484;2023-04-24T05:23:28;10.00;99.90
29777;DHT22;16677;52.224;7.484;2023-04-24T05:25:55;10.00;99.90
29777;DHT22;16677;52.224;7.484;2023-04-24T05:28:22;10.10;99.90
29777;DHT22;16677;52.224;7.484;2023-04-24T05:30:48;10.10;99.90
29777;DHT22;16677;52.224;7.484;2023-04-24T05:33:16;10.10;99.90
29777;DHT22;16677;52.224;7.484;2023-04-24T05:35:43;10.10;99.90
29777;DHT22;16677;52.224;7.484;2023-04-24T05:38:12;10.00;1.00
29777;DHT22;16677;52.224;7.484;2023-04-24T05:40:39;10.00;99.90
29777;DHT22;16677;52.224;7.484;2023-04-24T05:43:06;10.00;1.00
29777;DHT22;16677;52.224;7.484;2023-04-24T05:45:33;10.00;1.00
29777;DHT22;16677;52.224;7.484;2023-04-24T05:48:02;10.00;99.90
29777;DHT22;16677;52.224;7.484;2023-04-24T05:50:30;10.00;99.90
29777;DHT22;16677;52.224;7.484;2023-04-24T05:52:57;10.00;99.90
29777;DHT22;16677;52.224;7.484;2023-04-24T05:55:28;10.00;99.90
29777;DHT22;16677;52.224;7.484;2023-04-24T05:57:56;10.00;1.00
29777;DHT22;16677;52.224;7.484;2023-04-24T06:00:23;10.00;99.90
29777;DHT22;16677;52.224;7.484;2023-04-24T06:02:51;10.00;99.90
29777;DHT22;16677;52.224;7.484;2023-04-24T06:05:19;10.00;99.90
29777;DHT22;16677;52.224;7.484;2023-04-24T06:07:47;10.00;99.90
29777;DHT22;16677;52.224;7.484;2023-04-24T06:10:14;10.00;99.90
29777;DHT22;16677;52.224;7.484;2023-04-24T06:12:42;10.00;99.90
29777;DHT22;16677;52.224;7.484;2023-04-24T06:15:09;10.10;99.90
29777;DHT22;16677;52.224;7.484;2023-04-24T06:17:36;10.20;99.90
29777;DHT22;16677;52.224;7.484;2023-04-24T06:20:03;10.20;99.90
29777;DHT22;16677;52.224;7.484;2023-04-24T06:22:32;10.30;1.00
29777;DHT22;16677;52.224;7.484;2023-04-24T06:24:59;10.40;1.00
29777;DHT22;16677;52.224;7.484;2023-04-24T06:27:27;10.40;1.00
29777;DHT22;16677;52.224;7.484;2023-04-24T06:29:54;10.60;99.90
29777;DHT22;16677;52.224;7.484;2023-04-24T06:32:22;10.60;3.50
29777;DHT22;16677;52.224;7.484;2023-04-24T06:34:52;10.50;99.90
29777;DHT22;16677;52.224;7.484;2023-04-24T06:37:20;10.50;1.00
29777;DHT22;16677;52.224;7.484;2023-04-24T06:39:47;10.60;99.90
29777;DHT22;16677;52.224;7.484;2023-04-24T06:42:14;10.60;99.90
29777;DHT22;16677;52.224;7.484;2023-04-24T06:44:41;10.60;99.90
29777;DHT22;16677;52.224;7.484;2023-04-24T06:47:09;10.60;99.90
29777;DHT22;16677;52.224;7.484;2023-04-24T06:49:37;10.60;1.00
29777;DHT22;16677;52.224;7.484;2023-04-24T06:52:04;10.60;99.90
29777;DHT22;16677;52.224;7.484;2023-04-24T06:54:31;10.60;99.90
29777;DHT22;16677;52.224;7.484;2023-04-24T06:56:59;10.70;99.90
29777;DHT22;16677;52.224;7.484;2023-04-24T06:59:30;10.70;99.90
29777;DHT22;16677;52.224;7.484;2023-04-24T07:01:57;10.80;1.00
29777;DHT22;16677;52.224;7.484;2023-04-24T07:04:24;10.80;1.00
29777;DHT22;16677;52.224;7.484;2023-04-24T07:06:52;10.70;99.90
29777;DHT22;16677;52.224;7.484;2023-04-24T07:09:22;10.70;99.90
29777;DHT22;16677;52.224;7.484;2023-04-24T07:11:50;10.50;99.90
29777;DHT22;16677;52.224;7.484;2023-04-24T07:14:18;10.50;99.90
29777;DHT22;16677;52.224;7.484;2023-04-24T07:16:45;10.60;99.90
29777;DHT22;16677;52.224;7.484;2023-04-24T07:19:12;10.50;99.90
29777;DHT22;16677;52.224;7.484;2023-04-24T07:21:39;10.30;99.90
29777;DHT22;16677;52.224;7.484;2023-04-24T07:24:07;10.30;99.90
29777;DHT22;16677;52.224;7.484;2023-04-24T07:26:37;10.60;99.90
29777;DHT22;16677;52.224;7.484;2023-04-24T07:29:05;10.70;47.80
29777;DHT22;16677;52.224;7.484;2023-04-24T07:31:33;10.80;94.40
29777;DHT22;16677;52.224;7.484;2023-04-24T07:34:00;10.80;1.00
29777;DHT22;16677;52.224;7.484;2023-04-24T07:36:27;10.90;1.00
29777;DHT22;16677;52.224;7.484;2023-04-24T07:38:54;10.70;1.00
29777;DHT22;16677;52.224;7.484;2023-04-24T07:41:22;10.80;1.00
29777;DHT22;16677;52.224;7.484;2023-04-24T07:43:50;10.70;1.00
29777;DHT22;16677;52.224;7.484;2023-04-24T07:46:19;10.70;1.00
29777;DHT22;16677;52.224;7.484;2023-04-24T07:48:46;10.70;1.00
29777;DHT22;16677;52.224;7.484;2023-04-24T07:51:24;10.50;1.00
29777;DHT22;16677;52.224;7.484;2023-04-24T07:53:53;10.40;81.70
29777;DHT22;16677;52.224;7.484;2023-04-24T07:56:23;10.60;1.00
29777;DHT22;16677;52.224;7.484;2023-04-24T07:58:52;10.70;1.00
29777;DHT22;16677;52.224;7.484;2023-04-24T08:01:19;10.70;20.20
29777;DHT22;16677;52.224;7.484;2023-04-24T08:03:46;10.80;1.00
29777;DHT22;16677;52.224;7.484;2023-04-24T08:06:13;10.90;1.00
29777;DHT22;16677;52.224;7.484;2023-04-24T08:08:40;10.80;1.00
29777;DHT22;16677;52.224;7.484;2023-04-24T08:11:07;10.90;1.00
29777;DHT22;16677;52.224;7.484;2023-04-24T08:13:33;11.20;1.00
29777;DHT22;16677;52.224;7.484;2023-04-24T08:16:00;11.40;1.00
29777;DHT22;16677;52.224;7.484;2023-04-24T08:18:27;11.50;1.00
29777;DHT22;16677;52.224;7.484;2023-04-24T08:20:54;11.60;1.00
29777;DHT22;16677;52.224;7.484;2023-04-24T08:23:21;11.40;1.00
29777;DHT22;16677;52.224;7.484;2023-04-24T08:25:48;11.30;1.00
29777;DHT22;16677;52.224;7.484;2023-04-24T08:28:15;11.40;1.00
29777;DHT22;16677;52.224;7.484;2023-04-24T08:30:46;11.30;1.00
29777;DHT22;16677;52.224;7.484;2023-04-24T08:33:14;11.40;1.00
29777;DHT22;16677;52.224;7.484;2023-04-24T08:35:41;11.40;1.00
29777;DHT22;16677;52.224;7.484;2023-04-24T08:38:08;11.10;1.00
29777;DHT22;16677;52.224;7.484;2023-04-24T08:40:35;11.00;1.00
29777;DHT22;16677;52.224;7.484;2023-04-24T08:43:03;11.00;1.00
29777;DHT22;16677;52.224;7.484;2023-04-24T08:45:30;11.00;1.00
29777;DHT22;16677;52.224;7.484;2023-04-24T08:47:57;10.90;1.00
29777;DHT22;16677;52.224;7.484;2023-04-24T08:50:24;10.80;1.00
29777;DHT22;16677;52.224;7.484;2023-04-24T08:52:51;10.80;31.10
29777;DHT22;16677;52.224;7.484;2023-04-24T08:55:21;10.70;1.00
29777;DHT22;16677;52.224;7.484;2023-04-24T08:57:49;10.40;1.00
29777;DHT22;16677;52.224;7.484;2023-04-24T09:00:21;10.10;1.00
29777;DHT22;16677;52.224;7.484;2023-04-24T09:02:48;9.90;99.90
29777;DHT22;16677;52.224;7.484;2023-04-24T09:05:17;9.80;1.00
29777;DHT22;16677;52.224;7.484;2023-04-24T09:07:45;9.90;1.00
29777;DHT22;16677;52.224;7.484;2023-04-24T09:10:16;9.80;45.20
29777;DHT22;16677;52.224;7.484;2023-04-24T09:12:43;9.90;1.00
29777;DHT22;16677;52.224;7.484;2023-04-24T09:15:10;9.90;1.00
29777;DHT22;16677;52.224;7.484;2023-04-24T09:17:37;9.90;12.60
29777;DHT22;16677;52.224;7.484;2023-04-24T09:20:05;10.10;1.00
29777;DHT22;16677;52.224;7.484;2023-04-24T09:22:32;10.10;1.00
29777;DHT22;16677;52.224;7.484;2023-04-24T09:25:01;9.90;99.90
29777;DHT22;16677;52.224;7.484;2023-04-24T09:27:42;9.90;99.90
29777;DHT22;16677;52.224;7.484;2023-04-24T09:30:10;9.80;1.00
29777;DHT22;16677;52.224;7.484;2023-04-24T09:32:37;9.90;99.90
29777;DHT22;16677;52.224;7.484;2023-04-24T09:35:11;9.90;99.90
29777;DHT22;16677;52.224;7.484;2023-04-24T09:37:43;9.80;1.00
29777;DHT22;16677;52.224;7.484;2023-04-24T09:40:17;9.70;1.00
29777;DHT22;16677;52.224;7.484;2023-04-24T09:42:51;9.70;99.90
29777;DHT22;16677;52.224;7.484;2023-04-24T09:45:19;9.90;1.00
29777;DHT22;16677;52.224;7.484;2023-04-24T09:47:50;9.80;1.00
29777;DHT22;16677;52.224;7.484;2023-04-24T09:50:18;9.80;1.00
29777;DHT22;16677;52.224;7.484;2023-04-24T09:52:46;9.80;1.00
29777;DHT22;16677;52.224;7.484;2023-04-24T09:55:22;9.60;1.00
29777;DHT22;16677;52.224;7.484;2023-04-24T10:00:27;9.50;1.00
29777;DHT22;16677;52.224;7.484;2023-04-24T10:03:02;9.60;60.00
29777;DHT22;16677;52.224;7.484;2023-04-24T10:08:06;9.40;1.00
29777;DHT22;16677;52.224;7.484;2023-04-24T10:10:41;9.30;1.00
29777;DHT22;16677;52.224;7.484;2023-04-24T10:13:10;9.30;1.00
29777;DHT22;16677;52.224;7.484;2023-04-24T10:15:39;9.30;1.00
29777;DHT22;16677;52.224;7.484;2023-04-24T10:18:07;9.40;1.00
29777;DHT22;16677;52.224;7.484;2023-04-24T10:20:36;9.30;1.00
29777;DHT22;16677;52.224;7.484;2023-04-24T10:23:05;9.40;1.00
29777;DHT22;16677;52.224;7.484;2023-04-24T10:25:33;9.30;1.00
29777;DHT22;16677;52.224;7.484;2023-04-24T10:28:01;9.40;1.00
29777;DHT22;16677;52.224;7.484;2023-04-24T10:30:30;9.40;1.00
29777;DHT22;16677;52.224;7.484;2023-04-24T10:33:05;9.30;1.00
29777;DHT22;16677;52.224;7.484;2023-04-24T10:35:41;9.40;99.90
29777;DHT22;16677;52.224;7.484;2023-04-24T10:38:12;9.20;99.90
29777;DHT22;16677;52.224;7.484;2023-04-24T10:40:40;9.30;99.90
29777;DHT22;16677;52.224;7.484;2023-04-24T10:43:07;9.30;99.90
29777;DHT22;16677;52.224;7.484;2023-04-24T10:45:37;9.30;99.90
29777;DHT22;16677;52.224;7.484;2023-04-24T10:48:06;9.20;98.80
29777;DHT22;16677;52.224;7.484;2023-04-24T10:50:45;9.10;44.40
29777;DHT22;16677;52.224;7.484;2023-04-24T10:53:17;9.10;99.90
29777;DHT22;16677;52.224;7.484;2023-04-24T10:58:13;9.10;99.90
29777;DHT22;16677;52.224;7.484;2023-04-24T11:00:43;9.10;99.90
29777;DHT22;16677;52.224;7.484;2023-04-24T11:03:34;9.00;1.00
29777;DHT22;16677;52.224;7.484;2023-04-24T11:06:05;9.00;18.40
29777;DHT22;16677;52.224;7.484;2023-04-24T11:08:43;9.10;85.90
29777;DHT22;16677;52.224;7.484;2023-04-24T11:16:29;9.00;24.70
29777;DHT22;16677;52.224;7.484;2023-04-24T11:19:09;9.00;1.00
29777;DHT22;16677;52.224;7.484;2023-04-24T11:21:46;9.00;1.00
29777;DHT22;16677;52.224;7.484;2023-04-24T11:35:08;9.40;1.00
29777;DHT22;16677;52.224;7.484;2023-04-24T11:37:41;9.50;1.00
29777;DHT22;16677;52.224;7.484;2023-04-24T11:40:10;9.40;1.00
29777;DHT22;16677;52.224;7.484;2023-04-24T11:42:38;9.30;1.00
29777;DHT22;16677;52.224;7.484;2023-04-24T11:45:16;9.40;82.70
29777;DHT22;16677;52.224;7.484;2023-04-24T11:47:44;9.30;37.30
29777;DHT22;16677;52.224;7.484;2023-04-24T11:50:15;9.30;80.50
29777;DHT22;16677;52.224;7.484;2023-04-24T11:52:48;9.30;99.90
29777;DHT22;16677;52.224;7.484;2023-04-24T11:57:46;9.10;99.90
29777;DHT22;16677;52.224;7.484;2023-04-24T12:00:17;9.00;47.00
29777;DHT22;16677;52.224;7.484;2023-04-24T12:02:45;8.90;1.00
29777;DHT22;16677;52.224;7.484;2023-04-24T12:05:22;8.90;1.00
29777;DHT22;16677;52.224;7.484;2023-04-24T12:07:50;8.80;1.00
29777;DHT22;16677;52.224;7.484;2023-04-24T12:10:21;8.90;1.00
29777;DHT22;16677;52.224;7.484;2023-04-24T12:12:49;8.90;1.00
29777;DHT22;16677;52.224;7.484;2023-04-24T12:15:18;9.10;1.00
29777;DHT22;16677;52.224;7.484;2023-04-24T12:17:46;8.90;1.00
29777;DHT22;16677;52.224;7.484;2023-04-24T12:20:14;8.90;1.00
29777;DHT22;16677;52.224;7.484;2023-04-24T12:22:54;8.80;1.00
29777;DHT22;16677;52.224;7.484;2023-04-24T12:25:23;9.00;1.00
29777;DHT22;16677;52.224;7.484;2023-04-24T12:27:55;9.00;1.00
29777;DHT22;16677;52.224;7.484;2023-04-24T12:30:44;8.80;1.00
29777;DHT22;16677;52.224;7.484;2023-04-24T12:33:19;8.90;1.00
29777;DHT22;16677;52.224;7.484;2023-04-24T12:35:47;8.90;1.00
29777;DHT22;16677;52.224;7.484;2023-04-24T12:38:21;9.00;1.00
29777;DHT22;16677;52.224;7.484;2023-04-24T12:41:00;9.00;1.00
29777;DHT22;16677;52.224;7.484;2023-04-24T12:43:33;9.10;1.00
29777;DHT22;16677;52.224;7.484;2023-04-24T12:46:01;9.30;1.00
29777;DHT22;16677;52.224;7.484;2023-04-24T12:48:28;9.50;99.90
29777;DHT22;16677;52.224;7.484;2023-04-24T12:50:59;9.60;99.90
29777;DHT22;16677;52.224;7.484;2023-04-24T12:53:29;9.80;99.90
29777;DHT22;16677;52.224;7.484;2023-04-24T12:55:57;9.90;1.00
29777;DHT22;16677;52.224;7.484;2023-04-24T12:58:24;10.10;1.00
29777;DHT22;16677;52.224;7.484;2023-04-24T13:00:52;10.30;1.00
29777;DHT22;16677;52.224;7.484;2023-04-24T13:03:19;10.30;1.00
29777;DHT22;16677;52.224;7.484;2023-04-24T13:05:47;10.30;99.90
29777;DHT22;16677;52.224;7.484;2023-04-24T13:10:42;10.50;17.60
29777;DHT22;16677;52.224;7.484;2023-04-24T13:13:09;10.20;99.90
29777;DHT22;16677;52.224;7.484;2023-04-24T13:15:36;10.10;81.60
29777;DHT22;16677;52.224;7.484;2023-04-24T13:18:04;9.70;99.90
29777;DHT22;16677;52.224;7.484;2023-04-24T13:20:31;9.70;99.90
29777;DHT22;16677;52.224;7.484;2023-04-24T13:22:59;9.60;99.90
29777;DHT22;16677;52.224;7.484;2023-04-24T13:25:26;9.60;99.90
29777;DHT22;16677;52.224;7.484;2023-04-24T13:27:54;9.60;93.30
29777;DHT22;16677;52.224;7.484;2023-04-24T13:30:21;9.50;99.90
29777;DHT22;16677;52.224;7.484;2023-04-24T13:32:48;9.40;99.90
29777;DHT22;16677;52.224;7.484;2023-04-24T13:35:16;9.50;99.90
29777;DHT22;16677;52.224;7.484;2023-04-24T13:37:43;9.60;99.90
29777;DHT22;16677;52.224;7.484;2023-04-24T13:40:10;9.70;99.90
29777;DHT22;16677;52.224;7.484;2023-04-24T13:42:39;9.90;99.90
29777;DHT22;16677;52.224;7.484;2023-04-24T13:45:07;10.20;77.80
29777;DHT22;16677;52.224;7.484;2023-04-24T13:47:38;10.00;1.00
29777;DHT22;16677;52.224;7.484;2023-04-24T13:50:08;10.00;13.00
29777;DHT22;16677;52.224;7.484;2023-04-24T13:52:36;9.80;77.80
29777;DHT22;16677;52.224;7.484;2023-04-24T13:55:03;9.80;99.90
29777;DHT22;16677;52.224;7.484;2023-04-24T13:57:32;9.80;99.90
29777;DHT22;16677;52.224;7.484;2023-04-24T13:59:59;9.70;99.90
29777;DHT22;16677;52.224;7.484;2023-04-24T14:02:28;9.60;99.90
29777;DHT22;16677;52.224;7.484;2023-04-24T14:04:55;9.60;1.00
29777;DHT22;16677;52.224;7.484;2023-04-24T14:07:22;9.60;1.00
29777;DHT22;16677;52.224;7.484;2023-04-24T14:09:50;9.70;1.00
29777;DHT22;16677;52.224;7.484;2023-04-24T14:12:17;9.70;1.00
29777;DHT22;16677;52.224;7.484;2023-04-24T14:14:46;9.80;99.90
29777;DHT22;16677;52.224;7.484;2023-04-24T14:17:14;9.80;99.90
29777;DHT22;16677;52.224;7.484;2023-04-24T14:19:41;9.80;99.90
29777;DHT22;16677;52.224;7.484;2023-04-24T14:22:09;9.70;1.00
29777;DHT22;16677;52.224;7.484;2023-04-24T14:24:37;9.70;99.90
29777;DHT22;16677;52.224;7.484;2023-04-24T14:27:05;9.70;1.00
29777;DHT22;16677;52.224;7.484;2023-04-24T14:29:32;9.70;99.90
29777;DHT22;16677;52.224;7.484;2023-04-24T14:32:00;9.70;99.90
29777;DHT22;16677;52.224;7.484;2023-04-24T14:34:27;9.70;99.90
29777;DHT22;16677;52.224;7.484;2023-04-24T14:36:54;9.60;99.90
29777;DHT22;16677;52.224;7.484;2023-04-24T14:39:21;9.60;99.90
29777;DHT22;16677;52.224;7.484;2023-04-24T14:41:48;9.40;99.90
29777;DHT22;16677;52.224;7.484;2023-04-24T14:44:15;9.60;99.90
29777;DHT22;16677;52.224;7.484;2023-04-24T14:46:42;9.60;99.90
29777;DHT22;16677;52.224;7.484;2023-04-24T14:49:10;9.80;99.90
29777;DHT22;16677;52.224;7.484;2023-04-24T14:51:38;9.90;99.90
29777;DHT22;16677;52.224;7.484;2023-04-24T14:54:05;10.00;1.00
29777;DHT22;16677;52.224;7.484;2023-04-24T14:56:32;10.10;1.00
29777;DHT22;16677;52.224;7.484;2023-04-24T14:58:59;9.90;1.00
29777;DHT22;16677;52.224;7.484;2023-04-24T15:01:26;9.80;1.00
29777;DHT22;16677;52.224;7.484;2023-04-24T15:03:53;10.00;1.00
29777;DHT22;16677;52.224;7.484;2023-04-24T15:06:20;9.90;1.00
29777;DHT22;16677;52.224;7.484;2023-04-24T15:08:47;10.00;1.00
29777;DHT22;16677;52.224;7.484;2023-04-24T15:11:16;10.20;1.00
29777;DHT22;16677;52.224;7.484;2023-04-24T15:13:43;10.50;1.00
29777;DHT22;16677;52.224;7.484;2023-04-24T15:16:12;10.60;1.00
29777;DHT22;16677;52.224;7.484;2023-04-24T15:18:39;10.50;1.00
29777;DHT22;16677;52.224;7.484;2023-04-24T15:21:06;10.80;1.00
29777;DHT22;16677;52.224;7.484;2023-04-24T15:23:33;10.60;1.00
29777;DHT22;16677;52.224;7.484;2023-04-24T15:26:00;10.40;1.00
29777;DHT22;16677;52.224;7.484;2023-04-24T15:28:28;10.20;99.90
29777;DHT22;16677;52.224;7.484;2023-04-24T15:30:55;10.00;1.00
29777;DHT22;16677;52.224;7.484;2023-04-24T15:33:22;10.00;1.00
29777;DHT22;16677;52.224;7.484;2023-04-24T15:35:49;10.00;1.00
29777;DHT22;16677;52.224;7.484;2023-04-24T15:38:17;9.80;1.00
29777;DHT22;16677;52.224;7.484;2023-04-24T15:40:44;9.50;1.00
29777;DHT22;16677;52.224;7.484;2023-04-24T15:43:11;9.40;1.00
29777;DHT22;16677;52.224;7.484;2023-04-24T15:45:38;9.10;1.00
29777;DHT22;16677;52.224;7.484;2023-04-24T15:48:05;8.90;1.00
29777;DHT22;16677;52.224;7.484;2023-04-24T15:50:32;8.70;1.00
29777;DHT22;16677;52.224;7.484;2023-04-24T15:52:59;8.60;1.00
29777;DHT22;16677;52.224;7.484;2023-04-24T15:55:26;8.70;99.90
29777;DHT22;16677;52.224;7.484;2023-04-24T15:57:54;8.80;99.90
29777;DHT22;16677;52.224;7.484;2023-04-24T16:00:21;8.70;1.00
29777;DHT22;16677;52.224;7.484;2023-04-24T16:02:48;8.70;74.60
29777;DHT22;16677;52.224;7.484;2023-04-24T16:05:17;8.90;1.00
29777;DHT22;16677;52.224;7.484;2023-04-24T16:07:45;9.20;1.00
29777;DHT22;16677;52.224;7.484;2023-04-24T16:10:12;9.40;1.00
29777;DHT22;16677;52.224;7.484;2023-04-24T16:12:39;9.60;1.00
29777;DHT22;16677;52.224;7.484;2023-04-24T16:15:06;9.70;1.00
29777;DHT22;16677;52.224;7.484;2023-04-24T16:17:33;10.00;1.00
29777;DHT22;16677;52.224;7.484;2023-04-24T16:20:00;10.00;1.00
29777;DHT22;16677;52.224;7.484;2023-04-24T16:22:28;10.20;1.00